createdAt,value
2019-04-01T00:03:24.104Z,3.70
2019-04-01T00:13:28.951Z,4.97
2019-04-01T00:23:34.745Z,4.00
2019-04-01T00:33:39.435Z,3.60
2019-04-01T00:44:00.984Z,3.90
2019-04-01T00:54:05.652Z,3.77
2019-04-01T01:04:11.331Z,4.13
2019-04-01T01:14:17.111Z,4.77
2019-04-01T01:24:21.783Z,4.80
2019-04-01T01:34:26.421Z,4.93
2019-04-01T01:44:31.078Z,4.40
2019-04-01T01:54:35.782Z,4.67
2019-04-01T02:04:40.481Z,3.90
2019-04-01T02:14:46.067Z,2.93
2019-04-01T02:24:50.729Z,3.97
2019-04-01T02:34:55.371Z,4.60
2019-04-01T02:45:00.558Z,4.40
2019-04-01T02:55:06.879Z,4.90
2019-04-01T03:05:11.862Z,5.60
2019-04-01T03:15:16.500Z,5.23
2019-04-01T03:25:21.136Z,4.50
2019-04-01T03:35:25.778Z,4.23
2019-04-01T03:45:30.450Z,3.07
2019-04-01T03:55:35.449Z,3.63
2019-04-01T04:05:40.020Z,3.37
2019-04-01T04:15:44.680Z,3.60
2019-04-01T04:25:50.498Z,3.83
2019-04-01T04:35:55.174Z,3.63
2019-04-01T04:45:59.850Z,4.07
2019-04-01T04:56:04.470Z,4.80
2019-04-01T05:06:09.388Z,4.90
2019-04-01T05:16:14.154Z,4.77
2019-04-01T05:26:21.644Z,4.37
2019-04-01T05:36:26.581Z,3.30
2019-04-01T05:46:31.423Z,3.63
2019-04-01T05:56:36.235Z,3.70
2019-04-01T06:06:40.865Z,3.40
2019-04-01T06:16:45.559Z,4.13
2019-04-01T06:26:51.270Z,3.93
2019-04-01T06:36:56.933Z,3.80
2019-04-01T06:47:01.675Z,3.60
2019-04-01T06:57:06.587Z,3.90
2019-04-01T07:07:18.935Z,3.17
2019-04-01T07:17:17.575Z,2.87
2019-04-01T07:27:22.312Z,2.70
2019-04-01T07:37:27.044Z,2.20
2019-04-01T07:47:31.863Z,2.30
2019-04-01T07:57:36.811Z,2.23
2019-04-01T08:07:42.353Z,2.93
2019-04-01T08:17:46.947Z,2.53
2019-04-01T08:27:51.973Z,2.43
2019-04-01T08:37:56.732Z,2.37
2019-04-01T08:48:01.601Z,2.50
2019-04-01T08:58:06.465Z,2.47
2019-04-01T09:08:11.116Z,2.00
2019-04-01T09:18:15.893Z,3.03
2019-04-01T09:28:20.618Z,2.53
2019-04-01T09:38:25.467Z,1.90
2019-04-01T09:48:30.474Z,2.03
2019-04-01T09:58:35.170Z,1.90
2019-04-01T10:08:42.355Z,1.60
2019-04-01T10:18:46.285Z,1.70
2019-04-01T10:28:51.024Z,1.20
2019-04-01T10:38:55.918Z,1.60
2019-04-01T10:49:00.656Z,1.40
2019-04-01T10:59:05.337Z,1.20
2019-04-01T11:09:10.957Z,1.13
2019-04-01T11:19:15.636Z,1.40
2019-04-01T11:29:20.491Z,1.57
2019-04-01T11:39:25.139Z,0.90
2019-04-01T11:49:30.123Z,1.30
2019-04-01T11:59:35.145Z,1.07
2019-04-01T12:09:40.325Z,1.43
2019-04-01T12:19:45.174Z,1.13
2019-04-01T12:29:50.503Z,1.13
2019-04-01T12:39:55.230Z,1.10
2019-04-01T12:49:59.979Z,1.37
2019-04-01T13:00:05.730Z,1.10
2019-04-01T13:10:10.404Z,1.27
2019-04-01T13:20:15.212Z,1.07
2019-04-01T13:30:23.983Z,0.93
2019-04-01T13:40:27.221Z,1.07
2019-04-01T13:50:32.658Z,1.20
2019-04-01T14:00:37.577Z,1.27
2019-04-01T14:10:42.361Z,2.07
2019-04-01T14:20:48.138Z,1.10
2019-04-01T14:30:52.909Z,1.10
2019-04-01T14:40:58.198Z,1.80
2019-04-01T14:51:02.905Z,1.00
2019-04-01T15:01:07.665Z,1.30
2019-04-01T15:11:15.569Z,1.30
2019-04-01T15:21:21.776Z,1.10
2019-04-01T15:31:26.846Z,0.83
2019-04-01T15:41:31.665Z,1.07
2019-04-01T15:51:36.869Z,2.23
2019-04-01T16:01:41.924Z,0.90
2019-04-01T16:11:47.475Z,1.13
2019-04-01T16:21:53.078Z,1.50
2019-04-01T16:31:57.893Z,1.63
2019-04-01T16:42:02.898Z,1.13
2019-04-01T16:52:07.583Z,1.40
2019-04-01T17:02:18.185Z,2.03
2019-04-01T17:12:18.738Z,1.53
2019-04-01T17:22:23.482Z,1.43
2019-04-01T17:32:28.906Z,1.97
2019-04-01T17:42:33.685Z,1.40
2019-04-01T17:52:38.334Z,1.80
2019-04-01T18:02:43.013Z,2.13
2019-04-01T18:12:47.850Z,2.37
2019-04-01T18:22:52.566Z,3.17
2019-04-01T18:32:57.354Z,3.03
2019-04-01T18:43:02.220Z,3.60
2019-04-01T18:53:07.378Z,3.33
2019-04-01T19:03:12.404Z,3.00
2019-04-01T19:13:18.036Z,3.70
2019-04-01T19:23:22.709Z,4.13
2019-04-01T19:33:27.600Z,3.70
2019-04-01T19:43:32.443Z,4.67
2019-04-01T19:53:37.425Z,3.83
2019-04-01T20:03:43.117Z,3.47
2019-04-01T20:13:47.971Z,3.67
2019-04-01T20:23:54.874Z,3.30
2019-04-01T20:33:58.906Z,4.20
2019-04-01T20:44:03.823Z,4.67
2019-04-01T20:54:08.479Z,4.57
2019-04-01T21:04:13.255Z,4.17
2019-04-01T21:14:17.887Z,4.37
2019-04-01T21:24:23.470Z,5.10
2019-04-01T21:34:28.171Z,6.00
2019-04-01T21:44:35.874Z,4.97
2019-04-01T21:54:40.493Z,5.27
2019-04-01T22:04:45.133Z,5.73
2019-04-01T22:14:49.814Z,6.27
2019-04-01T22:24:54.439Z,7.03
2019-04-01T22:34:59.171Z,7.90
2019-04-01T22:45:03.875Z,9.33
2019-04-01T22:55:08.733Z,8.40
2019-04-01T23:05:13.435Z,8.30
2019-04-01T23:15:18.319Z,8.33
2019-04-01T23:25:22.984Z,7.97
2019-04-01T23:35:27.694Z,7.60
2019-04-01T23:45:32.396Z,8.30
2019-04-01T23:55:37.042Z,8.00
